Mc Connell Air Force Base
KIAB : now visible

Airfield :











YOU CAN JOIN US ON...

 
LOGIN :

Register | Disclaimer

   EN    FR    IT 

 









Legend :    VFR   Marginal VFR   IFR   Intensive IFR   Very Intensive IFR
Visi :
Ceiling :
>= 8 km
>= 3000ft
5 to 8 km
1000 to 3000 ft
1500m to 5 km
500 to 1000 ft
800 to 1500m
200 to 500 ft
< 800m
< 200 ft
Symbols :   Thunderstorms  Fog  Heavy snow  Heavy precipitations  Wind > 20 kt






- Airport Elevation : 1371 ft
- IATA code : IAB


KIAB - Mc Connell Air Force Base

CURRENT METAR :
  • 272256Z AUTO 21012KT 10SM CLR 33/12 A2983 RMK AO2 SLP091 T03300120 $

EXPIRED METARs :
  • 272156Z AUTO 20014G23KT 10SM CLR 34/11 A2983 RMK AO2 SLP090 T03430114 $
  • 272056Z AUTO 20018G21KT 10SM CLR 34/12 A2983 RMK AO2 PK WND 21026/04 SLP090 T03440115 57019 $

TAF TAF KIAB
Valid from the 27 at 18:00 until the 29 at 00:00 UTC


271800Z 2718/2824 21015G25KT 9999 SCT250 QNH2982INS
BECMG 2800/2801 18009KT 9999 SCT150 BKN250 510103 QNH2982INS
BECMG 2814/2815 19015G22KT 9999 SCT120 BKN180 QNH2975INS TX34/2721Z TN18/2811Z
KZKC FIR / North America



MET'MAP, your aeronautical weather chart ! - Copyright ORBIFLY December 2007 - Disclaimer

ORBIFLY MET'MAP TEAM :

Programming & Development : Alexandra Zaïnal
Concept & original design : Baudouin d'Aumeries
Assistance for programming : Marc-Olivier Méhu
Technical & hardware support : Manuel Goepfert

Contact : metmap@orbifly.com




SOURCES & CREDITS :

   NOAA       Earth
Advisory